Sugar Hill, New Hampshire
Current Conditions -  °F | °C
As of 3:52 AM on Monday 24 Nov 2014 (Local Time) from KHIE Reporting Station
Clear Clear  
Wind Chill: 34°   Ceiling: Unl
Heat Index: 34°   Visibility: 7mi
Dew Point: 32°   Wind: 0mph
Humidity: 92%   Direction: NA
Pressure: 29.91"   Gusts: NA
Location:  44.22°N, 71.8°W
Report Text: KHIE 240852Z AUTO 00000KT 7SM CLR 01/00 A2991 RMK AO2 SLP138 T00110000 58027
Loading
Personal Weather Stations






























Interactive Weather Map New forecast layout! Learn more

10-Day Weather Forecast

Advertisements
Track Severe Weather on mobile